Terminal Aerodrome Forecast
Issued by NWS

Home | Current Version | Previous Version | Text Only | Print | Product List | Glossary On
Versions: 1 2 3 4 5 6 7 8 9 10 11 12 13 14 15 16 17 18 19 20 21
000
FTUS43 KICT 090523
TAFRSL
TAF
KRSL 090523Z 0906/1006 VRB03KT P6SM SCT120
     FM091100 15006KT P6SM SCT040 BKN050
     FM091600 17012KT P6SM SCT040 BKN050
     FM092300 15007KT P6SM BKN080=

USA.gov is the U.S. government's official web portal to all federal, state and local government web resources and services.